Time;durP1;ratioP1;P1;durP2;ratioP2;P2;SDS_P1;SDS_P2;PMS_P1;PMS_P2;Temp;Humidity;BMP_temperature;BMP_pressure;BME280_temperature;BME280_humidity;BME280_pressure;Samples;Min_cycle;Max_cycle;Signal;HPM_P1;HPM_P2
2023/06/19 00:01:16;;;;;;;;;;;16.20;56.20;;;;;;5012750;28;19921;-77
2023/06/19 00:03:41;;;;;;;;;;;16.20;56.20;;;;;;4995185;28;19905;-78
2023/06/19 00:06:07;;;;;;;;;;;16.10;56.30;;;;;;4999550;28;20008;-77
2023/06/19 00:08:32;;;;;;;;;;;16.10;56.50;;;;;;5020258;28;19944;-78
2023/06/19 00:10:58;;;;;;;;;;;16.10;56.50;;;;;;5015017;28;19913;-78
2023/06/19 00:13:24;;;;;;;;;;;16.10;56.80;;;;;;5013112;28;19915;-78
2023/06/19 00:15:50;;;;;;;;;;;16.00;57.00;;;;;;5012636;28;19915;-78
2023/06/19 00:18:17;;;;;;;;;;;16.00;56.90;;;;;;5012809;28;20025;-77
2023/06/19 00:20:45;;;;;;;;;;;16.00;56.90;;;;;;5012786;28;20001;-77
2023/06/19 00:23:13;;;;;;;;;;;16.00;56.90;;;;;;5013063;28;20287;-76
2023/06/19 00:25:40;;;;;;;;;;;16.00;56.90;;;;;;5016249;28;19913;-77
2023/06/19 00:28:11;;;;;;;;;;;16.00;57.10;;;;;;5016991;28;19913;-78
2023/06/19 00:30:37;;;;;;;;;;;15.90;57.40;;;;;;5013584;28;19905;-79
2023/06/19 00:33:03;;;;;;;;;;;15.90;57.60;;;;;;5004380;28;19937;-77
2023/06/19 00:35:29;;;;;;;;;;;15.90;57.50;;;;;;4996303;28;19906;-78
2023/06/19 00:37:54;;;;;;;;;;;15.80;57.60;;;;;;5017560;28;20434;-76
2023/06/19 00:40:28;;;;;;;;;;;15.80;57.90;;;;;;5016198;28;19913;-77
2023/06/19 00:42:53;;;;;;;;;;;15.80;58.00;;;;;;4994186;28;19936;-76
2023/06/19 00:45:19;;;;;;;;;;;15.70;58.00;;;;;;5012422;28;19910;-77
2023/06/19 00:47:45;;;;;;;;;;;15.70;58.00;;;;;;5012354;28;19909;-78
2023/06/19 00:50:11;;;;;;;;;;;15.70;58.00;;;;;;5012278;28;20355;-77
2023/06/19 00:52:37;;;;;;;;;;;15.60;58.70;;;;;;5012393;28;20339;-76
2023/06/19 00:55:03;;;;;;;;;;;15.60;58.60;;;;;;4995158;28;19909;-77
2023/06/19 00:57:30;;;;;;;;;;;15.60;58.60;;;;;;5013281;28;20275;-77
2023/06/19 00:59:56;;;;;;;;;;;15.60;58.70;;;;;;5011549;28;20032;-79
2023/06/19 01:02:23;;;;;;;;;;;15.50;58.80;;;;;;5013325;28;19928;-76
2023/06/19 01:04:49;;;;;;;;;;;15.50;58.80;;;;;;5016438;28;19905;-76
2023/06/19 01:07:18;;;;;;;;;;;15.50;58.90;;;;;;5017414;28;19905;-78
2023/06/19 01:09:50;;;;;;;;;;;15.50;58.60;;;;;;5018402;28;19952;-77
2023/06/19 01:12:19;;;;;;;;;;;15.50;58.70;;;;;;5004226;28;19912;-77
2023/06/19 01:14:52;;;;;;;;;;;15.50;58.80;;;;;;5015837;28;19910;-76
2023/06/19 01:17:18;;;;;;;;;;;15.50;58.80;;;;;;5002430;28;19905;-78
2023/06/19 01:19:44;;;;;;;;;;;15.50;58.70;;;;;;5015667;28;20362;-78
2023/06/19 01:22:09;;;;;;;;;;;15.40;58.70;;;;;;5015474;28;20018;-77
2023/06/19 01:24:35;;;;;;;;;;;15.40;58.60;;;;;;5015627;28;19959;-77
2023/06/19 01:27:01;;;;;;;;;;;15.40;58.60;;;;;;5015474;28;19913;-77
2023/06/19 01:29:26;;;;;;;;;;;15.40;59.10;;;;;;5015745;28;19905;-76
2023/06/19 01:32:02;;;;;;;;;;;15.30;58.90;;;;;;4998275;28;19949;-78
2023/06/19 01:34:29;;;;;;;;;;;15.30;58.90;;;;;;5015568;28;19906;-78
2023/06/19 01:36:57;;;;;;;;;;;15.30;59.10;;;;;;5015382;28;20017;-78
2023/06/19 01:39:23;;;;;;;;;;;15.30;59.20;;;;;;5015153;28;19909;-78
2023/06/19 01:41:49;;;;;;;;;;;15.30;59.50;;;;;;5015412;28;19976;-76
2023/06/19 01:44:15;;;;;;;;;;;15.30;59.20;;;;;;5015451;28;20003;-77
2023/06/19 01:46:40;;;;;;;;;;;15.30;59.10;;;;;;5015439;28;19940;-77
2023/06/19 01:49:07;;;;;;;;;;;15.30;59.10;;;;;;5013808;28;19916;-77
2023/06/19 01:51:33;;;;;;;;;;;15.30;59.00;;;;;;5018323;28;19996;-78
2023/06/19 01:53:58;;;;;;;;;;;15.40;59.10;;;;;;5023599;28;19909;-78
2023/06/19 01:56:24;;;;;;;;;;;15.30;59.10;;;;;;5015367;28;19913;-77
2023/06/19 01:58:50;;;;;;;;;;;15.40;58.90;;;;;;5015145;28;19947;-77
2023/06/19 02:01:15;;;;;;;;;;;15.30;59.00;;;;;;5015349;28;20260;-77
2023/06/19 02:03:41;;;;;;;;;;;15.40;59.60;;;;;;5014326;28;19946;-77
2023/06/19 02:06:07;;;;;;;;;;;15.40;58.90;;;;;;5014907;28;19905;-77
2023/06/19 02:08:32;;;;;;;;;;;15.40;58.60;;;;;;5014824;28;20322;-78
2023/06/19 02:10:58;;;;;;;;;;;15.40;58.80;;;;;;5014445;28;20442;-77
2023/06/19 02:13:23;;;;;;;;;;;15.40;58.80;;;;;;5014389;28;20431;-80
2023/06/19 02:15:49;;;;;;;;;;;15.40;58.70;;;;;;5014411;28;19956;-78
2023/06/19 02:18:15;;;;;;;;;;;15.40;58.80;;;;;;5016014;28;20363;-77
2023/06/19 02:20:40;;;;;;;;;;;15.40;59.30;;;;;;5017066;28;19917;-77
2023/06/19 02:23:06;;;;;;;;;;;15.50;58.80;;;;;;5017130;28;20402;-77
2023/06/19 02:25:33;;;;;;;;;;;15.50;58.50;;;;;;5022379;28;19913;-76
2023/06/19 02:28:00;;;;;;;;;;;15.50;58.50;;;;;;5018359;28;20347;-79
2023/06/19 02:30:25;;;;;;;;;;;15.50;58.60;;;;;;5014734;28;19995;-78
2023/06/19 02:32:51;;;;;;;;;;;15.60;58.50;;;;;;5014336;28;19980;-78
2023/06/19 02:35:17;;;;;;;;;;;15.60;58.30;;;;;;5014824;28;19936;-77
2023/06/19 02:37:42;;;;;;;;;;;15.50;58.10;;;;;;5003956;28;19922;-77
2023/06/19 02:40:10;;;;;;;;;;;15.60;58.30;;;;;;5014466;28;19917;-78
2023/06/19 02:42:35;;;;;;;;;;;15.60;58.20;;;;;;5014440;28;19905;-78
2023/06/19 02:45:04;;;;;;;;;;;15.60;58.20;;;;;;5014514;28;19905;-77
2023/06/19 02:47:30;;;;;;;;;;;15.50;58.00;;;;;;5017321;28;19935;-78
2023/06/19 02:49:57;;;;;;;;;;;15.60;58.20;;;;;;5013884;28;19912;-76
2023/06/19 02:52:22;;;;;;;;;;;15.60;58.20;;;;;;5013759;28;19910;-78
2023/06/19 02:54:48;;;;;;;;;;;15.70;58.30;;;;;;5013553;28;20375;-78
2023/06/19 02:57:14;;;;;;;;;;;15.70;58.20;;;;;;5012601;28;19921;-76
2023/06/19 02:59:39;;;;;;;;;;;15.80;58.00;;;;;;4996230;28;19913;-77
2023/06/19 03:02:05;;;;;;;;;;;16.00;58.00;;;;;;5013571;28;20279;-77
2023/06/19 03:04:31;;;;;;;;;;;16.10;57.50;;;;;;5013596;28;19912;-78
2023/06/19 03:06:56;;;;;;;;;;;16.10;57.50;;;;;;5013620;28;19912;-79
2023/06/19 03:09:22;;;;;;;;;;;16.30;57.60;;;;;;5013756;28;19957;-79
2023/06/19 03:11:48;;;;;;;;;;;16.50;57.50;;;;;;5017449;28;19916;-77
2023/06/19 03:14:13;;;;;;;;;;;16.70;57.10;;;;;;5036892;28;19916;-77
2023/06/19 03:16:39;;;;;;;;;;;16.90;56.80;;;;;;5015733;28;20016;-76
2023/06/19 03:19:05;;;;;;;;;;;17.00;56.60;;;;;;4998770;28;19917;-79
2023/06/19 03:21:30;;;;;;;;;;;17.00;56.20;;;;;;5013409;28;19967;-77
2023/06/19 03:23:56;;;;;;;;;;;17.00;56.10;;;;;;5013167;28;19960;-77
2023/06/19 03:26:22;;;;;;;;;;;17.00;56.20;;;;;;5012244;28;19912;-78
2023/06/19 03:28:47;;;;;;;;;;;17.00;56.10;;;;;;5012560;28;19910;-77
2023/06/19 03:31:13;;;;;;;;;;;17.10;56.20;;;;;;5013044;28;19936;-77
2023/06/19 03:33:39;;;;;;;;;;;17.10;56.00;;;;;;5013332;28;19917;-76
2023/06/19 03:36:05;;;;;;;;;;;17.10;55.70;;;;;;5013439;28;19997;-77
2023/06/19 03:38:31;;;;;;;;;;;17.20;55.70;;;;;;5025308;28;19905;-78
2023/06/19 03:40:57;;;;;;;;;;;17.20;55.70;;;;;;5014832;28;20016;-76
2023/06/19 03:43:22;;;;;;;;;;;17.20;55.70;;;;;;5013543;28;19905;-78
2023/06/19 03:45:48;;;;;;;;;;;17.30;55.70;;;;;;5012772;28;19913;-78
2023/06/19 03:48:15;;;;;;;;;;;17.40;55.30;;;;;;4995317;28;19916;-77
2023/06/19 03:50:40;;;;;;;;;;;17.40;55.00;;;;;;5012911;28;19991;-77
2023/06/19 03:53:06;;;;;;;;;;;17.50;55.00;;;;;;5012943;28;19910;-76
2023/06/19 03:55:31;;;;;;;;;;;17.60;55.10;;;;;;5012752;28;19905;-78
2023/06/19 03:57:57;;;;;;;;;;;17.50;55.00;;;;;;4995536;28;19917;-76
2023/06/19 04:00:23;;;;;;;;;;;17.60;55.00;;;;;;5014946;28;19921;-78
2023/06/19 04:02:49;;;;;;;;;;;17.60;54.90;;;;;;5013759;28;19913;-78
2023/06/19 04:05:17;;;;;;;;;;;17.70;54.50;;;;;;5012779;28;19952;-77
2023/06/19 04:07:43;;;;;;;;;;;17.80;54.40;;;;;;5012637;28;19909;-77
2023/06/19 04:10:11;;;;;;;;;;;17.90;54.40;;;;;;5012740;28;19932;-77
2023/06/19 04:12:37;;;;;;;;;;;17.90;54.10;;;;;;4995162;28;20264;-77
2023/06/19 04:15:02;;;;;;;;;;;18.00;53.70;;;;;;5012569;28;19916;-76
2023/06/19 04:17:28;;;;;;;;;;;18.00;53.70;;;;;;5012610;28;19910;-76
2023/06/19 04:19:54;;;;;;;;;;;18.10;53.70;;;;;;5012485;28;20299;-78
2023/06/19 04:22:19;;;;;;;;;;;18.10;53.50;;;;;;4995663;28;20056;-78
2023/06/19 04:24:45;;;;;;;;;;;18.10;53.20;;;;;;5013543;28;19906;-77
2023/06/19 04:27:11;;;;;;;;;;;18.10;53.40;;;;;;5013049;28;19906;-78
2023/06/19 04:29:36;;;;;;;;;;;18.20;53.20;;;;;;5013186;28;19912;-77
2023/06/19 04:32:03;;;;;;;;;;;18.20;52.90;;;;;;5013335;28;19913;-80
2023/06/19 04:34:29;;;;;;;;;;;18.20;52.90;;;;;;5016886;28;19936;-82
2023/06/19 04:36:58;;;;;;;;;;;18.10;52.40;;;;;;5012637;28;19917;-79
2023/06/19 04:39:24;;;;;;;;;;;18.10;52.50;;;;;;5016360;28;20028;-80
2023/06/19 04:41:49;;;;;;;;;;;18.20;52.60;;;;;;5016717;28;19992;-81
2023/06/19 04:44:15;;;;;;;;;;;18.30;52.40;;;;;;5016523;28;19933;-80
2023/06/19 04:46:41;;;;;;;;;;;18.40;52.10;;;;;;5016642;28;19905;-79
2023/06/19 04:49:06;;;;;;;;;;;18.60;51.90;;;;;;5016565;28;19906;-80
2023/06/19 04:51:32;;;;;;;;;;;18.60;51.60;;;;;;5018593;28;19906;-77
2023/06/19 04:54:01;;;;;;;;;;;18.60;51.30;;;;;;5018913;28;19916;-78
2023/06/19 04:56:27;;;;;;;;;;;18.70;51.40;;;;;;5017828;28;20282;-79
2023/06/19 04:58:55;;;;;;;;;;;18.80;50.80;;;;;;4999904;28;19937;-78
2023/06/19 05:01:27;;;;;;;;;;;18.70;50.10;;;;;;5020750;28;19949;-79
2023/06/19 05:03:54;;;;;;;;;;;18.60;50.00;;;;;;4999572;28;20307;-79
2023/06/19 05:06:20;;;;;;;;;;;18.60;50.50;;;;;;4998558;28;20436;-80
2023/06/19 05:08:45;;;;;;;;;;;18.70;51.10;;;;;;5016230;28;19913;-76
2023/06/19 05:11:11;;;;;;;;;;;18.70;50.10;;;;;;5015346;28;20457;-78
2023/06/19 05:13:37;;;;;;;;;;;18.90;50.50;;;;;;5016299;28;19909;-79
2023/06/19 05:16:02;;;;;;;;;;;19.50;51.00;;;;;;5027118;28;19897;-78
2023/06/19 05:18:28;;;;;;;;;;;20.30;50.90;;;;;;5031114;28;19913;-78
2023/06/19 05:20:53;;;;;;;;;;;21.40;46.90;;;;;;5016386;28;19921;-78
2023/06/19 05:23:19;;;;;;;;;;;22.40;45.20;;;;;;5025453;28;19932;-80
2023/06/19 05:25:45;;;;;;;;;;;23.20;42.90;;;;;;5018759;28;19913;-76
2023/06/19 05:28:11;;;;;;;;;;;23.60;41.00;;;;;;5015594;28;19917;-76
2023/06/19 05:30:36;;;;;;;;;;;24.10;41.30;;;;;;5013559;28;20351;-77
2023/06/19 05:33:02;;;;;;;;;;;25.10;40.00;;;;;;4999033;28;20302;-78
2023/06/19 05:35:27;;;;;;;;;;;25.60;39.20;;;;;;5018674;28;19912;-77
2023/06/19 05:37:53;;;;;;;;;;;26.40;39.00;;;;;;5006503;28;19917;-76
2023/06/19 05:40:19;;;;;;;;;;;27.40;39.10;;;;;;5015081;28;19925;-77
2023/06/19 05:42:44;;;;;;;;;;;27.80;36.20;;;;;;5014510;28;19910;-78
2023/06/19 05:45:10;;;;;;;;;;;27.50;36.30;;;;;;5014973;28;19916;-77
2023/06/19 05:47:36;;;;;;;;;;;27.50;37.10;;;;;;5015402;28;20318;-78
2023/06/19 05:50:02;;;;;;;;;;;;;;;;;;5015043;28;19909;-77
2023/06/19 05:52:28;;;;;;;;;;;28.40;36.80;;;;;;5016482;28;19905;-79
2023/06/19 05:54:54;;;;;;;;;;;;;;;;;;5018970;28;20378;-78
2023/06/19 05:57:23;;;;;;;;;;;29.10;35.70;;;;;;5018253;28;19969;-80
2023/06/19 05:59:49;;;;;;;;;;;;;;;;;;5015966;28;19925;-79
2023/06/19 06:02:15;;;;;;;;;;;30.40;34.30;;;;;;5015224;28;19906;-79
2023/06/19 06:04:41;;;;;;;;;;;;;;;;;;5014713;28;19928;-80
2023/06/19 06:07:07;;;;;;;;;;;;;;;;;;4997158;28;19906;-78
2023/06/19 06:09:33;;;;;;;;;;;;;;;;;;5014729;28;19912;-79
2023/06/19 06:12:00;;;;;;;;;;;;;;;;;;5014979;28;19913;-80
2023/06/19 06:14:26;;;;;;;;;;;;;;;;;;4998403;28;19906;-79
2023/06/19 06:16:51;;;;;;;;;;;31.70;32.60;;;;;;4997796;28;19912;-79
2023/06/19 06:19:18;;;;;;;;;;;32.00;31.50;;;;;;5014400;28;19940;-77
2023/06/19 06:21:43;;;;;;;;;;;32.90;31.30;;;;;;5014479;28;19905;-80
2023/06/19 06:24:09;;;;;;;;;;;34.00;31.40;;;;;;5000594;28;19924;-79
2023/06/19 06:26:35;;;;;;;;;;;34.40;30.30;;;;;;5014656;28;20282;-79
2023/06/19 06:29:01;;;;;;;;;;;;;;;;;;5014763;28;19956;-79
2023/06/19 06:31:27;;;;;;;;;;;35.40;29.90;;;;;;4996828;28;20008;-80
2023/06/19 06:33:53;;;;;;;;;;;35.70;29.50;;;;;;5014615;28;19905;-78
2023/06/19 06:36:18;;;;;;;;;;;35.90;29.00;;;;;;5013885;28;19913;-78
2023/06/19 06:38:44;;;;;;;;;;;35.70;29.60;;;;;;5014748;28;20004;-80
2023/06/19 06:41:10;;;;;;;;;;;;;;;;;;4996896;28;19963;-77
2023/06/19 06:43:36;;;;;;;;;;;35.80;28.40;;;;;;4996382;28;19905;-77
2023/06/19 06:46:01;;;;;;;;;;;35.60;28.70;;;;;;5013631;28;19910;-79
2023/06/19 06:48:27;;;;;;;;;;;35.10;28.80;;;;;;5013811;28;19945;-79
2023/06/19 06:51:00;;;;;;;;;;;34.50;29.00;;;;;;5013668;28;19967;-77
2023/06/19 06:53:28;;;;;;;;;;;34.80;29.40;;;;;;5013425;28;20310;-77
2023/06/19 06:55:53;;;;;;;;;;;34.90;29.20;;;;;;5013522;28;19917;-77
2023/06/19 06:58:19;;;;;;;;;;;35.40;29.00;;;;;;5013686;28;20008;-77
2023/06/19 07:00:45;;;;;;;;;;;36.20;29.10;;;;;;5013071;28;19914;-78
2023/06/19 07:03:11;;;;;;;;;;;35.90;28.20;;;;;;5013629;28;20350;-79
2023/06/19 07:05:37;;;;;;;;;;;36.10;28.30;;;;;;5014153;28;19905;-79
2023/06/19 07:08:03;;;;;;;;;;;36.10;28.50;;;;;;5019717;28;19932;-78
2023/06/19 07:10:29;;;;;;;;;;;36.10;28.40;;;;;;5019568;28;19910;-78
2023/06/19 07:12:55;;;;;;;;;;;36.40;28.20;;;;;;5014481;28;19905;-78
2023/06/19 07:15:21;;;;;;;;;;;36.70;28.50;;;;;;5014251;28;19911;-77
2023/06/19 07:17:47;;;;;;;;;;;37.30;28.00;;;;;;5014044;28;20363;-78
2023/06/19 07:20:12;;;;;;;;;;;37.00;28.00;;;;;;5015367;28;19917;-78
2023/06/19 07:22:38;;;;;;;;;;;37.40;28.30;;;;;;5016562;28;19906;-79
2023/06/19 07:25:04;;;;;;;;;;;38.30;28.20;;;;;;4996115;28;20011;-77
2023/06/19 07:27:30;;;;;;;;;;;38.70;27.70;;;;;;5013336;28;19996;-77
2023/06/19 07:29:56;;;;;;;;;;;38.80;27.60;;;;;;5006727;28;19909;-78
2023/06/19 07:32:22;;;;;;;;;;;39.00;27.80;;;;;;5012741;28;19905;-79
2023/06/19 07:34:47;;;;;;;;;;;39.10;27.40;;;;;;5009117;28;20000;-78
2023/06/19 07:37:17;;;;;;;;;;;39.00;27.50;;;;;;5012983;28;19941;-78
2023/06/19 07:39:44;;;;;;;;;;;39.20;27.50;;;;;;5012719;28;19917;-79
2023/06/19 07:42:10;;;;;;;;;;;;;;;;;;5012668;28;19909;-78
2023/06/19 07:44:36;;;;;;;;;;;39.80;27.60;;;;;;5012646;28;19913;-76
2023/06/19 07:47:02;;;;;;;;;;;;;;;;;;5012357;28;20399;-77
2023/06/19 07:49:28;;;;;;;;;;;;;;;;;;5011983;28;20367;-79
2023/06/19 07:51:54;;;;;;;;;;;;;;;;;;5012505;28;19916;-78
2023/06/19 07:54:20;;;;;;;;;;;;;;;;;;5012700;28;20437;-78
2023/06/19 07:56:46;;;;;;;;;;;;;;;;;;5012190;28;20404;-79
2023/06/19 07:59:11;;;;;;;;;;;40.40;26.90;;;;;;5012815;28;19905;-79
2023/06/19 08:01:38;;;;;;;;;;;;;;;;;;5013011;28;19909;-78
2023/06/19 08:04:04;;;;;;;;;;;;;;;;;;5012410;28;20278;-79
2023/06/19 08:06:29;;;;;;;;;;;;;;;;;;5012532;28;19913;-77
2023/06/19 08:08:55;;;;;;;;;;;;;;;;;;5013930;28;19905;-78
2023/06/19 08:11:21;;;;;;;;;;;;;;;;;;5015088;28;19952;-80
2023/06/19 08:13:47;;;;;;;;;;;38.80;26.10;;;;;;5012294;28;19905;-78
2023/06/19 08:16:13;;;;;;;;;;;41.00;26.10;;;;;;5012319;28;19906;-78
2023/06/19 08:18:39;;;;;;;;;;;40.20;25.60;;;;;;5012239;28;19916;-78
2023/06/19 08:21:04;;;;;;;;;;;39.20;26.10;;;;;;5012138;28;20278;-78
2023/06/19 08:23:30;;;;;;;;;;;39.50;26.50;;;;;;5012214;28;20346;-76
2023/06/19 08:25:56;;;;;;;;;;;40.30;26.40;;;;;;5012135;28;19905;-78
2023/06/19 08:28:21;;;;;;;;;;;40.50;26.20;;;;;;4994619;28;19912;-81
2023/06/19 08:30:47;;;;;;;;;;;39.80;26.30;;;;;;5012222;28;19952;-78
2023/06/19 08:33:13;;;;;;;;;;;39.30;26.30;;;;;;5007185;28;19905;-79
2023/06/19 08:35:38;;;;;;;;;;;39.30;26.70;;;;;;5012516;28;19909;-76
2023/06/19 08:38:04;;;;;;;;;;;40.00;26.60;;;;;;5012423;28;19933;-80
2023/06/19 08:40:30;;;;;;;;;;;;;;;;;;5011924;28;19913;-79
2023/06/19 08:42:56;;;;;;;;;;;;;;;;;;5011824;28;19956;-78
2023/06/19 08:45:22;;;;;;;;;;;41.00;26.50;;;;;;5012092;28;19928;-78
2023/06/19 08:47:48;;;;;;;;;;;42.10;26.20;;;;;;5011753;28;19992;-78
2023/06/19 08:50:15;;;;;;;;;;;41.60;25.50;;;;;;4994496;28;20400;-79
2023/06/19 08:52:41;;;;;;;;;;;41.50;25.40;;;;;;5013700;28;19905;-78
2023/06/19 08:55:07;;;;;;;;;;;41.20;25.50;;;;;;5015282;28;19905;-78
2023/06/19 08:57:35;;;;;;;;;;;41.20;25.70;;;;;;5012676;28;19917;-78
2023/06/19 09:00:01;;;;;;;;;;;41.50;25.60;;;;;;5012121;28;19944;-79
2023/06/19 09:02:36;;;;;;;;;;;41.50;25.20;;;;;;4994898;28;19905;-77
2023/06/19 09:05:09;;;;;;;;;;;40.50;25.50;;;;;;5012931;28;20009;-77
2023/06/19 09:07:34;;;;;;;;;;;40.60;25.90;;;;;;4999917;28;20005;-79
2023/06/19 09:10:10;;;;;;;;;;;41.10;25.90;;;;;;5013220;28;19956;-79
2023/06/19 09:12:36;;;;;;;;;;;41.40;25.60;;;;;;5011925;28;19905;-79
2023/06/19 09:15:11;;;;;;;;;;;41.50;25.50;;;;;;5011922;28;20003;-79
2023/06/19 09:17:36;;;;;;;;;;;41.00;25.20;;;;;;5011723;28;19905;-79
2023/06/19 09:20:05;;;;;;;;;;;40.30;25.50;;;;;;5011506;28;19913;-78
2023/06/19 09:22:31;;;;;;;;;;;40.40;25.70;;;;;;5011906;28;20043;-78
2023/06/19 09:25:00;;;;;;;;;;;41.00;25.70;;;;;;5015910;28;19906;-79
2023/06/19 09:27:31;;;;;;;;;;;41.40;25.50;;;;;;5015946;28;19974;-77
2023/06/19 09:29:57;;;;;;;;;;;41.00;25.40;;;;;;5015675;28;19959;-79
2023/06/19 09:32:23;;;;;;;;;;;40.90;25.90;;;;;;5015007;28;19905;-78
2023/06/19 09:34:50;;;;;;;;;;;40.70;25.30;;;;;;5015247;28;20657;-78
2023/06/19 09:37:21;;;;;;;;;;;40.20;25.10;;;;;;5015131;28;19944;-78
2023/06/19 09:39:47;;;;;;;;;;;39.20;25.60;;;;;;5015070;28;19991;-79
2023/06/19 09:42:13;;;;;;;;;;;;;;;;;;5014873;28;20374;-78
2023/06/19 09:44:39;;;;;;;;;;;;;;;;;;5014799;28;19937;-78
2023/06/19 09:47:05;;;;;;;;;;;;;;;;;;5015010;28;20286;-78
2023/06/19 09:49:30;;;;;;;;;;;;;;;;;;5014901;28;19956;-78
2023/06/19 09:51:56;;;;;;;;;;;;;;;;;;4997415;28;19906;-78
2023/06/19 09:54:22;;;;;;;;;;;;;;;;;;5014444;28;19952;-79
2023/06/19 09:56:50;;;;;;;;;;;;;;;;;;5014558;28;20397;-78
2023/06/19 09:59:16;;;;;;;;;;;;;;;;;;5014728;28;19913;-79
2023/06/19 10:01:42;;;;;;;;;;;;;;;;;;5014754;28;19909;-79
2023/06/19 10:04:10;;;;;;;;;;;38.70;25.90;;;;;;5015290;28;20325;-78
2023/06/19 10:06:43;;;;;;;;;;;40.30;25.30;;;;;;5015243;28;19906;-79
2023/06/19 10:09:09;;;;;;;;;;;39.80;24.60;;;;;;4997876;28;19920;-79
2023/06/19 10:11:50;;;;;;;;;;;39.50;24.60;;;;;;5014573;28;20260;-79
2023/06/19 10:14:18;;;;;;;;;;;39.80;25.00;;;;;;5014136;28;20235;-78
2023/06/19 10:16:44;;;;;;;;;;;40.30;24.60;;;;;;4996492;28;20449;-79
2023/06/19 10:19:14;;;;;;;;;;;40.00;24.50;;;;;;4998895;28;19909;-78
2023/06/19 10:21:47;;;;;;;;;;;39.10;24.20;;;;;;5014327;28;20004;-79
2023/06/19 10:24:18;;;;;;;;;;;38.40;24.70;;;;;;4999896;28;19967;-78
2023/06/19 10:26:44;;;;;;;;;;;38.90;24.60;;;;;;5014642;28;20450;-78
2023/06/19 10:29:16;;;;;;;;;;;38.30;24.50;;;;;;5000634;28;19944;-78
2023/06/19 10:31:42;;;;;;;;;;;37.10;24.40;;;;;;5014199;28;19906;-79
2023/06/19 10:34:08;;;;;;;;;;;35.40;24.50;;;;;;4996342;28;19959;-79
2023/06/19 10:36:34;;;;;;;;;;;33.50;25.00;;;;;;5009462;28;20325;-77
2023/06/19 10:39:00;;;;;;;;;;;31.80;25.50;;;;;;5015864;28;19995;-79
2023/06/19 10:41:26;;;;;;;;;;;;;;;;;;5017713;28;19909;-79
2023/06/19 10:44:03;;;;;;;;;;;30.50;26.10;;;;;;5014526;28;19996;-78
2023/06/19 10:46:33;;;;;;;;;;;28.50;27.20;;;;;;4997919;28;19935;-79
2023/06/19 10:49:01;;;;;;;;;;;27.60;27.80;;;;;;5012765;28;20406;-78
2023/06/19 10:51:27;;;;;;;;;;;26.90;28.90;;;;;;5015291;28;19909;-77
2023/06/19 10:53:53;;;;;;;;;;;26.50;29.20;;;;;;5014693;28;19905;-79
2023/06/19 10:56:20;;;;;;;;;;;25.90;29.00;;;;;;5014775;28;20329;-78
2023/06/19 10:58:46;;;;;;;;;;;25.50;29.00;;;;;;5013582;28;20379;-79
2023/06/19 11:01:11;;;;;;;;;;;25.30;29.20;;;;;;5014187;28;19960;-79
2023/06/19 11:03:37;;;;;;;;;;;25.10;29.10;;;;;;5013490;28;19906;-78
2023/06/19 11:06:03;;;;;;;;;;;25.00;29.00;;;;;;5013695;28;20350;-78
2023/06/19 11:08:29;;;;;;;;;;;24.80;29.30;;;;;;5014267;28;19929;-79
2023/06/19 11:10:55;;;;;;;;;;;24.60;30.40;;;;;;5014202;28;19905;-79
2023/06/19 11:13:20;;;;;;;;;;;24.40;30.70;;;;;;5013794;28;19945;-78
2023/06/19 11:15:49;;;;;;;;;;;24.30;31.10;;;;;;4995548;28;20321;-77
2023/06/19 11:18:16;;;;;;;;;;;24.20;31.10;;;;;;5005579;28;20327;-79
2023/06/19 11:20:50;;;;;;;;;;;24.20;31.30;;;;;;5013270;28;19913;-78
2023/06/19 11:23:16;;;;;;;;;;;24.10;31.40;;;;;;5006738;28;20248;-78
2023/06/19 11:25:42;;;;;;;;;;;24.10;32.00;;;;;;5011758;28;19906;-78
2023/06/19 11:28:12;;;;;;;;;;;23.90;32.80;;;;;;5013868;28;19944;-78
2023/06/19 11:30:38;;;;;;;;;;;23.80;33.40;;;;;;5002927;28;19905;-77
2023/06/19 11:33:03;;;;;;;;;;;23.60;33.40;;;;;;5013665;28;19916;-77
2023/06/19 11:35:36;;;;;;;;;;;23.60;32.80;;;;;;5012971;28;19913;-77
2023/06/19 11:38:02;;;;;;;;;;;23.60;33.20;;;;;;5012519;28;19916;-78
2023/06/19 11:40:29;;;;;;;;;;;23.60;33.40;;;;;;5012993;28;20291;-78
2023/06/19 11:42:55;;;;;;;;;;;23.60;33.50;;;;;;5013057;28;19906;-79
2023/06/19 11:45:21;;;;;;;;;;;23.60;33.20;;;;;;4995314;28;19928;-78
2023/06/19 11:47:48;;;;;;;;;;;23.60;32.30;;;;;;4999170;28;20310;-77
2023/06/19 11:50:15;;;;;;;;;;;23.70;32.10;;;;;;5012698;28;19905;-79
2023/06/19 11:52:46;;;;;;;;;;;23.80;32.30;;;;;;5001585;28;19925;-77
2023/06/19 11:55:13;;;;;;;;;;;24.00;32.80;;;;;;4998099;28;19909;-78
2023/06/19 11:57:39;;;;;;;;;;;24.20;32.90;;;;;;5013477;28;19976;-77
2023/06/19 12:00:12;;;;;;;;;;;24.30;33.00;;;;;;5014110;28;19917;-77
2023/06/19 12:02:37;;;;;;;;;;;24.20;32.20;;;;;;5007694;28;19909;-78
2023/06/19 12:05:03;;;;;;;;;;;24.10;32.30;;;;;;4994844;28;19916;-78
2023/06/19 12:07:29;;;;;;;;;;;24.20;32.10;;;;;;5012470;28;19955;-78
2023/06/19 12:09:54;;;;;;;;;;;24.30;31.90;;;;;;5012278;28;19905;-78
2023/06/19 12:12:20;;;;;;;;;;;24.40;32.10;;;;;;4994369;28;19909;-78
2023/06/19 12:14:46;;;;;;;;;;;24.50;32.10;;;;;;5012342;28;20279;-78
2023/06/19 12:17:11;;;;;;;;;;;24.50;31.40;;;;;;5012184;28;19906;-78
2023/06/19 12:19:37;;;;;;;;;;;24.30;31.50;;;;;;5012265;28;19917;-79
2023/06/19 12:22:04;;;;;;;;;;;24.20;31.80;;;;;;5012757;28;19963;-78
2023/06/19 12:24:30;;;;;;;;;;;24.10;31.60;;;;;;4999212;28;19913;-79
2023/06/19 12:26:55;;;;;;;;;;;24.10;31.80;;;;;;5014843;28;19913;-78
2023/06/19 12:29:21;;;;;;;;;;;24.20;31.90;;;;;;5012807;28;20322;-77
2023/06/19 12:31:46;;;;;;;;;;;24.10;32.00;;;;;;5012354;28;19905;-78
2023/06/19 12:34:12;;;;;;;;;;;24.10;32.30;;;;;;5012807;28;19906;-79
2023/06/19 12:36:38;;;;;;;;;;;24.10;32.70;;;;;;5012666;28;19905;-77
2023/06/19 12:39:06;;;;;;;;;;;24.00;32.60;;;;;;4994804;28;19916;-82
2023/06/19 12:41:31;;;;;;;;;;;23.90;32.80;;;;;;5012360;28;19914;-77
2023/06/19 12:43:57;;;;;;;;;;;23.90;32.90;;;;;;5003034;28;19971;-78
2023/06/19 12:46:23;;;;;;;;;;;23.90;33.40;;;;;;5012093;28;19909;-77
2023/06/19 12:48:50;;;;;;;;;;;23.90;33.10;;;;;;5012178;28;20525;-80
2023/06/19 12:51:17;;;;;;;;;;;23.70;33.20;;;;;;5011967;28;19920;-79
2023/06/19 12:53:43;;;;;;;;;;;23.70;33.60;;;;;;5012224;28;19909;-78
2023/06/19 12:56:09;;;;;;;;;;;23.70;33.90;;;;;;5011809;28;19922;-78
2023/06/19 12:58:34;;;;;;;;;;;23.70;33.60;;;;;;4995716;28;19909;-77
2023/06/19 13:01:00;;;;;;;;;;;23.70;33.60;;;;;;5015869;28;19917;-78
2023/06/19 13:03:26;;;;;;;;;;;23.80;33.70;;;;;;5015925;28;19996;-79
2023/06/19 13:05:52;;;;;;;;;;;23.80;34.10;;;;;;5015647;28;19905;-80
2023/06/19 13:08:17;;;;;;;;;;;23.80;34.20;;;;;;4998203;28;20362;-79
2023/06/19 13:10:43;;;;;;;;;;;23.80;34.30;;;;;;5015407;28;19909;-78
2023/06/19 13:13:10;;;;;;;;;;;23.70;34.10;;;;;;5015693;28;20004;-79
2023/06/19 13:15:36;;;;;;;;;;;23.60;34.00;;;;;;5015582;28;19905;-77
2023/06/19 13:18:01;;;;;;;;;;;23.60;34.20;;;;;;5015597;28;19980;-76
2023/06/19 13:20:27;;;;;;;;;;;23.60;34.00;;;;;;5015220;28;19913;-77
2023/06/19 13:22:53;;;;;;;;;;;23.50;34.20;;;;;;5001846;28;20382;-78
2023/06/19 13:25:19;;;;;;;;;;;23.50;34.00;;;;;;5015797;28;19909;-79
2023/06/19 13:27:44;;;;;;;;;;;23.40;34.50;;;;;;4998213;28;19915;-78
2023/06/19 13:30:10;;;;;;;;;;;23.30;34.40;;;;;;5015626;28;19906;-78
2023/06/19 13:32:37;;;;;;;;;;;23.20;35.00;;;;;;5002122;28;19910;-77
2023/06/19 13:35:04;;;;;;;;;;;23.30;34.90;;;;;;5016704;28;19906;-79
2023/06/19 13:37:30;;;;;;;;;;;23.20;34.80;;;;;;5015517;28;19917;-78
2023/06/19 13:39:55;;;;;;;;;;;23.60;34.80;;;;;;4997433;28;19909;-78
2023/06/19 13:42:21;;;;;;;;;;;24.80;34.20;;;;;;5014822;28;20299;-79
2023/06/19 13:44:47;;;;;;;;;;;26.20;33.80;;;;;;5014909;28;19906;-79
2023/06/19 13:47:12;;;;;;;;;;;27.50;32.90;;;;;;5014606;28;19948;-77
2023/06/19 13:49:39;;;;;;;;;;;28.30;32.30;;;;;;5000715;28;19906;-78
2023/06/19 13:52:05;;;;;;;;;;;29.00;32.10;;;;;;5015118;28;19916;-79
2023/06/19 13:54:30;;;;;;;;;;;29.50;31.50;;;;;;5015237;28;19919;-78
2023/06/19 13:56:56;;;;;;;;;;;29.00;30.50;;;;;;4997400;28;20011;-78
2023/06/19 13:59:22;;;;;;;;;;;28.40;30.70;;;;;;5015169;28;19909;-78
2023/06/19 14:01:47;;;;;;;;;;;28.30;31.20;;;;;;5015018;28;19909;-77
2023/06/19 14:04:13;;;;;;;;;;;28.50;31.10;;;;;;5015320;28;19913;-77
2023/06/19 14:06:41;;;;;;;;;;;28.80;31.20;;;;;;5015294;28;19913;-78
2023/06/19 14:09:07;;;;;;;;;;;29.40;31.30;;;;;;5016284;28;19916;-78
2023/06/19 14:11:33;;;;;;;;;;;29.60;30.80;;;;;;5015648;28;19905;-78
2023/06/19 14:13:59;;;;;;;;;;;29.90;30.80;;;;;;5017507;28;19981;-79
2023/06/19 14:16:24;;;;;;;;;;;29.90;30.60;;;;;;5015097;28;19992;-77
2023/06/19 14:18:50;;;;;;;;;;;29.60;30.30;;;;;;5014418;28;19905;-79
2023/06/19 14:21:16;;;;;;;;;;;29.40;30.70;;;;;;5014668;28;19920;-79
2023/06/19 14:23:44;;;;;;;;;;;29.50;30.80;;;;;;4997058;28;19913;-78